Ann Arbor, MI

3:33 PM EDT on September 01, 2014 (GMT -0400)
Walker Briar Works | Change Station
CLOSE
Current Station
Personal Weather Station
Location: Ann Arbor, MI
Elevation: 961 ft
Nearby Weather Stations

Elev 961 ft 42.26 °N, 83.77 °W | Updated 3 minutes ago

Scattered Clouds
Scattered Clouds
80.8 °F
Feels Like 85 °F
N
0.7
Wind Variable Wind from NNE
Gusts 5.4 mph

Today
High -- | Low -- °F
--% Chance of Precip.
Yesterday
High -- | Low -- °F
Precip. -- in
7:00 AM 8:09 PM
Waxing Crescent, 43% visible
Pressure 29.79 in
Visibility 10.0 miles
Clouds Scattered Clouds 3400 ft
Heat Index 85 °F
Dew Point 73 °F
Humidity 77%
Rainfall 0.00 in
Snow Depth Not available.
UV 6 out of 12
Pollen 8.00 out of 12
Ozone Good
PM2.5 Good
Flu Activity Not available.
METAR KARB 011853Z 20012G19KT 10SM SCT034 28/21 A2979

More Conditions Fewer Conditions

Pressure 29.79 in
Visibility 10.0 miles
Clouds Scattered Clouds 3400 ft
Heat Index 85 °F
Dew Point 73 °F
Humidity 77%
Rainfall 0.00 in
Snow Depth Not available.
UV 6 out of 12
Pollen 8.00 out of 12
Ozone Good
PM2.5 Good
Flu Activity Not available.
METAR KARB 011853Z 20012G19KT 10SM SCT034 28/21 A2979

More Conditions Fewer Conditions

10-Day Weather Forecast

Almanac

Astronomy

Sep. 01, 2014 Rise Set
Actual Time 7:00 AM EDT 8:09 PM EDT
Civil Twilight 6:31 AM EDT 8:37 PM EDT
Nautical Twilight 5:57 AM EDT 9:12 PM EDT
Astronomical Twilight 5:20 AM EDT 9:48 PM EDT
Moon 1:52 PM EDT No Moon Set
Length of Visible Light 14h 06m
Length of Day
13h 08m
Tomorrow will be 2m 45s shorter.
Waxing Crescent, 43% of the Moon is Illuminated
Today
Waxing Crescent
Sep 2
First Quarter
Sep 8
Full
Sep 15
Last Quarter
Sep 24
New

Today's Extremes

State Highs State Lows

Community

WunderPhotos

Upload Photos

1,749,385 photos uploaded!

WunderBlogs® & News

Nearby

Air Quality

  Air Quality AQ Index Pollutant
Yesterday Good
PM2.5
Yesterday Good
OZONE
Current Good
PM2.5
Current Good
OZONE
Monday Good
OZONE
Monday Good
PM2.5
Tuesday Good
OZONE
Tuesday Good
PM2.5

Snow Depth

Station Depth Elevation
No new snow has been reported.

Earthquake Activity

City Distance Mag. Time & Date
No recent earthquake activity has been reported nearby.
Minimum magnitude displayed is 2.5.

Coastal Water Temperatures

Place Temperature
No Stations Reporting

Nearby Weather Stations